Time;durP1;ratioP1;P1;durP2;ratioP2;P2;SDS_P1;SDS_P2;PMS_P1;PMS_P2;Temp;Humidity;BMP_temperature;BMP_pressure;BME280_temperature;BME280_humidity;BME280_pressure;Samples;Min_cycle;Max_cycle;Signal;HPM_P1;HPM_P2
2021/08/18 00:00:16;;;;;;;5.97;1.70;;;563.30;1612.80;;;;;;5093458;28;20032;-79
2021/08/18 00:02:41;;;;;;;4.55;2.00;;;563.20;1638.40;;;;;;5075373;28;20096;-77
2021/08/18 00:05:12;;;;;;;5.70;1.65;;;538.50;1612.80;;;;;;5093359;28;20099;-76
2021/08/18 00:07:37;;;;;;;6.63;2.35;;;538.50;1612.80;;;;;;5093474;28;20038;-78
2021/08/18 00:10:10;;;;;;;4.82;1.80;;;538.50;1612.80;;;;;;5093233;28;20024;-78
2021/08/18 00:12:36;;;;;;;6.32;2.08;;;538.40;1612.80;;;;;;5093480;28;20060;-75
2021/08/18 00:15:04;;;;;;;5.55;2.00;;;538.40;1612.80;;;;;;5093818;28;20133;-76
2021/08/18 00:17:30;;;;;;;7.75;2.03;;;538.30;1612.80;;;;;;5095592;28;20377;-75
2021/08/18 00:19:56;;;;;;;4.40;1.80;;;538.10;1638.40;;;;;;5097327;28;20103;-77
2021/08/18 00:22:21;;;;;;;4.60;2.10;;;538.00;1638.40;;;;;;5097427;28;20492;-76
2021/08/18 00:24:48;;;;;;;6.22;2.20;;;538.00;1638.40;;;;;;5097185;28;20028;-75
2021/08/18 00:27:13;;;;;;;3.75;2.00;;;538.00;1638.40;;;;;;5096762;28;20032;-75
2021/08/18 00:29:42;;;;;;;6.78;1.98;;;538.00;1638.40;;;;;;5097362;28;20073;-75
2021/08/18 00:32:09;;;;;;;4.03;1.70;;;537.90;1638.40;;;;;;5097203;28;20049;-75
2021/08/18 00:34:35;;;;;;;8.50;2.40;;;537.90;1638.40;;;;;;5096998;28;20024;-76
2021/08/18 00:37:01;;;;;;;10.93;3.80;;;537.90;1638.40;;;;;;5097007;28;20036;-76
2021/08/18 00:39:26;;;;;;;5.85;1.80;;;537.90;1612.80;;;;;;5096719;28;20427;-77
2021/08/18 00:41:53;;;;;;;3.92;1.77;;;537.90;1612.80;;;;;;5097297;28;20028;-78
2021/08/18 00:44:19;;;;;;;7.10;2.03;;;537.80;1612.80;;;;;;5096951;28;20024;-77
2021/08/18 00:46:53;;;;;;;7.00;2.03;;;537.80;1612.80;;;;;;5096997;28;20081;-75
2021/08/18 00:49:20;;;;;;;4.43;1.90;;;537.70;1612.80;;;;;;5097079;28;20024;-75
2021/08/18 00:51:50;;;;;;;8.27;2.20;;;537.80;1612.80;;;;;;5078897;28;20067;-75
2021/08/18 00:54:17;;;;;;;5.28;2.50;;;537.80;1612.80;;;;;;5079176;28;20470;-75
2021/08/18 00:56:44;;;;;;;4.97;2.13;;;537.70;1612.80;;;;;;5097262;28;20028;-77
2021/08/18 00:59:10;;;;;;;4.03;2.22;;;537.70;1612.80;;;;;;5097192;28;20031;-77
2021/08/18 01:01:37;;;;;;;2.65;1.58;;;537.80;1612.80;;;;;;5097647;28;20378;-76
2021/08/18 01:04:04;;;;;;;6.65;1.75;;;537.80;1612.80;;;;;;5096596;28;20020;-76
2021/08/18 01:06:30;;;;;;;3.22;1.50;;;537.80;1612.80;;;;;;5096529;28;20498;-77
2021/08/18 01:08:56;;;;;;;3.38;1.75;;;537.80;1612.80;;;;;;5096061;28;20051;-76
2021/08/18 01:11:22;;;;;;;4.88;2.22;;;537.80;1612.80;;;;;;5096502;28;20079;-76
2021/08/18 01:13:48;;;;;;;4.35;1.48;;;537.70;1612.80;;;;;;5096591;28;20526;-77
2021/08/18 01:16:14;;;;;;;9.18;2.05;;;537.70;1612.80;;;;;;5077747;28;20079;-76
2021/08/18 01:18:40;;;;;;;6.82;2.22;;;537.70;1612.80;;;;;;5096204;28;20021;-78
2021/08/18 01:21:07;;;;;;;4.95;1.83;;;537.70;1612.80;;;;;;5096015;28;20039;-77
2021/08/18 01:23:33;;;;;;;5.70;1.55;;;537.80;1612.80;;;;;;5096019;28;20028;-78
2021/08/18 01:25:58;;;;;;;3.53;1.38;;;537.80;1612.80;;;;;;5096053;28;20473;-79
2021/08/18 01:28:26;;;;;;;3.55;1.52;;;537.80;1612.80;;;;;;5094571;28;20177;-75
2021/08/18 01:30:52;;;;;;;3.72;1.60;;;537.80;1612.80;;;;;;5095989;28;20028;-77
2021/08/18 01:33:17;;;;;;;2.95;1.80;;;538.00;1587.20;;;;;;5095762;28;20035;-78
2021/08/18 01:35:48;;;;;;;5.45;1.73;;;538.00;1587.20;;;;;;5095907;28;20039;-78
2021/08/18 01:38:18;;;;;;;5.28;1.70;;;538.00;1587.20;;;;;;5076895;28;20128;-77
2021/08/18 01:40:47;;;;;;;3.58;1.92;;;538.00;1587.20;;;;;;5095946;28;20052;-77
2021/08/18 01:43:13;;;;;;;4.38;1.60;;;538.00;1587.20;;;;;;5090406;28;20023;-78
2021/08/18 01:45:42;;;;;;;5.68;1.33;;;538.00;1587.20;;;;;;5083147;28;20063;-78
2021/08/18 01:48:14;;;;;;;4.28;1.70;;;538.00;1587.20;;;;;;5095849;28;20032;-81
2021/08/18 01:50:42;;;;;;;4.65;1.67;;;538.00;1587.20;;;;;;5079272;28;20034;-80
2021/08/18 01:53:08;;;;;;;3.45;1.40;;;538.00;1587.20;;;;;;5057140;28;20028;-82
2021/08/18 01:55:34;;;;;;;1.98;1.02;;;538.00;1587.20;;;;;;5077003;28;20017;-80
2021/08/18 01:58:00;;;;;;;5.50;1.83;;;538.10;1561.60;;;;;;5076511;28;20047;-78
2021/08/18 02:00:29;;;;;;;4.55;1.60;;;538.10;1561.60;;;;;;5077551;28;20032;-79
2021/08/18 02:02:54;;;;;;;6.63;1.60;;;538.10;1561.60;;;;;;5075373;28;20020;-78
2021/08/18 02:05:22;;;;;;;2.90;1.67;;;538.10;1561.60;;;;;;5075261;28;20027;-78
2021/08/18 02:07:49;;;;;;;4.05;1.58;;;538.20;1561.60;;;;;;5075425;28;20535;-79
2021/08/18 02:10:17;;;;;;;10.60;2.20;;;538.30;1536.00;;;;;;5075654;28;20016;-76
2021/08/18 02:12:44;;;;;;;2.75;1.70;;;538.30;1561.60;;;;;;5075334;28;20029;-80
2021/08/18 02:15:15;;;;;;;3.47;1.45;;;538.20;1536.00;;;;;;5075403;28;20068;-77
2021/08/18 02:17:40;;;;;;;3.03;1.65;;;538.10;1536.00;;;;;;5074683;28;20086;-78
2021/08/18 02:20:10;;;;;;;3.00;1.60;;;538.10;1536.00;;;;;;5074512;28;20471;-77
2021/08/18 02:22:36;;;;;;;3.78;1.95;;;538.00;1510.40;;;;;;5074721;28;20099;-78
2021/08/18 02:25:03;;;;;;;6.03;2.10;;;537.80;1536.00;;;;;;5077506;28;20432;-77
2021/08/18 02:27:28;;;;;;;2.42;1.38;;;537.80;1536.00;;;;;;5081136;28;20102;-76
2021/08/18 02:29:54;;;;;;;6.22;1.80;;;537.80;1536.00;;;;;;5086483;28;20463;-75
2021/08/18 02:32:20;;;;;;;5.40;1.80;;;537.80;1536.00;;;;;;5080591;28;20513;-76
2021/08/18 02:34:45;;;;;;;4.70;1.30;;;537.80;1536.00;;;;;;5089528;28;20031;-78
2021/08/18 02:37:11;;;;;;;4.03;1.70;;;537.80;1536.00;;;;;;5074070;28;20491;-76
2021/08/18 02:39:37;;;;;;;3.13;1.90;;;537.80;1536.00;;;;;;5074309;28;20040;-76
2021/08/18 02:42:04;;;;;;;4.90;1.75;;;537.80;1536.00;;;;;;5078662;28;20056;-78
2021/08/18 02:44:29;;;;;;;2.45;1.38;;;537.80;1536.00;;;;;;5088635;28;20555;-78
2021/08/18 02:46:55;;;;;;;5.75;2.10;;;537.70;1536.00;;;;;;5074379;28;20071;-78
2021/08/18 02:49:21;;;;;;;6.28;1.60;;;537.70;1536.00;;;;;;5074240;28;20020;-79
2021/08/18 02:51:47;;;;;;;5.50;2.00;;;537.80;1536.00;;;;;;5072440;28;20032;-78
2021/08/18 02:54:13;;;;;;;6.63;1.50;;;537.80;1536.00;;;;;;5073914;28;20099;-79
2021/08/18 02:56:39;;;;;;;4.95;1.77;;;537.80;1561.60;;;;;;5073925;28;20028;-77
2021/08/18 02:59:05;;;;;;;4.43;1.80;;;537.90;1536.00;;;;;;5073706;28;20029;-76
2021/08/18 03:01:31;;;;;;;2.90;1.65;;;538.00;1536.00;;;;;;5073914;28;20091;-76
2021/08/18 03:03:57;;;;;;;2.90;1.45;;;537.90;1536.00;;;;;;5073992;28;20021;-78
2021/08/18 03:06:22;;;;;;;5.45;2.00;;;537.90;1536.00;;;;;;5073640;28;20036;-78
2021/08/18 03:08:48;;;;;;;4.00;1.35;;;537.90;1536.00;;;;;;5073878;28;20020;-79
2021/08/18 03:11:14;;;;;;;5.15;2.05;;;537.90;1536.00;;;;;;5074064;28;20077;-78
2021/08/18 03:13:40;;;;;;;4.22;2.00;;;537.80;1536.00;;;;;;5074356;28;20103;-77
2021/08/18 03:16:05;;;;;;;3.67;1.83;;;537.90;1536.00;;;;;;5074229;28;20021;-77
2021/08/18 03:18:31;;;;;;;7.13;1.88;;;537.90;1536.00;;;;;;5084835;28;20024;-76
2021/08/18 03:20:58;;;;;;;4.50;2.20;;;537.90;1536.00;;;;;;5067126;28;20070;-75
2021/08/18 03:23:24;;;;;;;3.53;1.52;;;537.90;1536.00;;;;;;5069143;28;20110;-76
2021/08/18 03:25:51;;;;;;;3.53;1.60;;;537.90;1536.00;;;;;;5093894;28;20032;-76
2021/08/18 03:28:16;;;;;;;4.45;1.80;;;537.90;1536.00;;;;;;5075440;28;20142;-75
2021/08/18 03:30:43;;;;;;;1.70;1.35;;;538.00;1536.00;;;;;;5090539;28;20110;-76
2021/08/18 03:33:08;;;;;;;3.78;2.00;;;538.00;1536.00;;;;;;5085725;28;20099;-76
2021/08/18 03:35:34;;;;;;;6.38;2.00;;;538.00;1536.00;;;;;;5084309;28;20056;-76
2021/08/18 03:38:00;;;;;;;3.47;1.95;;;538.00;1536.00;;;;;;5071364;28;20051;-76
2021/08/18 03:40:26;;;;;;;5.00;1.80;;;538.00;1536.00;;;;;;5054412;28;20032;-76
2021/08/18 03:42:52;;;;;;;4.00;1.75;;;537.80;1561.60;;;;;;5073488;28;20024;-75
2021/08/18 03:45:18;;;;;;;5.38;2.45;;;537.80;1561.60;;;;;;5073666;28;20017;-77
2021/08/18 03:47:43;;;;;;;4.13;1.67;;;537.80;1561.60;;;;;;5073412;28;20430;-76
2021/08/18 03:50:10;;;;;;;5.95;2.47;;;537.80;1561.60;;;;;;5080164;28;20039;-76
2021/08/18 03:52:40;;;;;;;3.40;1.90;;;537.80;1561.60;;;;;;5080027;28;20148;-76
2021/08/18 03:55:07;;;;;;;4.53;2.00;;;537.80;1561.60;;;;;;5080904;28;20103;-77
2021/08/18 03:57:32;;;;;;;4.50;2.05;;;537.90;1536.00;;;;;;5072962;28;20101;-76
2021/08/18 03:59:59;;;;;;;3.00;1.40;;;537.90;1561.60;;;;;;5073434;28;20080;-76
2021/08/18 04:02:26;;;;;;;4.22;1.88;;;538.00;1536.00;;;;;;5055282;28;20023;-76
2021/08/18 04:04:52;;;;;;;2.60;1.50;;;538.00;1536.00;;;;;;5073283;28;20036;-76
2021/08/18 04:07:17;;;;;;;6.88;1.73;;;538.00;1536.00;;;;;;5055009;28;20032;-77
2021/08/18 04:09:43;;;;;;;3.58;2.05;;;538.00;1536.00;;;;;;5055072;28;20020;-76
2021/08/18 04:12:09;;;;;;;7.55;1.90;;;538.00;1536.00;;;;;;5073438;28;20494;-75
2021/08/18 04:14:35;;;;;;;2.92;1.52;;;538.00;1536.00;;;;;;5073250;28;20025;-76
2021/08/18 04:17:00;;;;;;;5.28;1.77;;;538.10;1536.00;;;;;;5081704;28;20028;-76
2021/08/18 04:19:26;;;;;;;7.40;1.95;;;538.00;1536.00;;;;;;5080234;28;20020;-75
2021/08/18 04:21:52;;;;;;;3.70;1.70;;;538.10;1536.00;;;;;;5081831;28;20055;-76
2021/08/18 04:24:19;;;;;;;3.58;1.90;;;538.10;1536.00;;;;;;5072664;28;20052;-75
2021/08/18 04:26:45;;;;;;;7.65;1.98;;;538.10;1510.40;;;;;;5073239;28;20087;-75
2021/08/18 04:29:10;;;;;;;6.55;2.50;;;538.20;1510.40;;;;;;5073049;28;20672;-75
2021/08/18 04:31:36;;;;;;;3.67;1.55;;;538.20;1510.40;;;;;;5083332;28;20034;-77
2021/08/18 04:34:02;;;;;;;8.30;2.17;;;538.20;1536.00;;;;;;5093871;28;20024;-78
2021/08/18 04:36:28;;;;;;;4.20;1.98;;;538.10;1510.40;;;;;;5093275;28;20023;-76
2021/08/18 04:38:53;;;;;;;3.03;2.08;;;538.10;1510.40;;;;;;5079926;28;20533;-77
2021/08/18 04:41:19;;;;;;;3.17;2.13;;;538.00;1536.00;;;;;;5092549;28;20381;-75
2021/08/18 04:43:45;;;;;;;5.95;2.00;;;538.10;1536.00;;;;;;5093198;28;20382;-76
2021/08/18 04:46:10;;;;;;;3.08;2.22;;;538.10;1536.00;;;;;;5092784;28;20028;-76
2021/08/18 04:48:36;;;;;;;5.57;1.75;;;538.20;1536.00;;;;;;5093466;28;20032;-75
2021/08/18 04:51:02;;;;;;;3.47;1.90;;;538.10;1510.40;;;;;;5093408;28;20027;-77
2021/08/18 04:53:28;;;;;;;5.03;1.85;;;538.20;1510.40;;;;;;5088122;28;20394;-76
2021/08/18 04:55:54;;;;;;;3.53;1.92;;;538.10;1510.40;;;;;;5072608;28;20103;-74
2021/08/18 04:58:20;;;;;;;5.45;2.13;;;538.10;1510.40;;;;;;5072389;28;20491;-76
2021/08/18 05:00:46;;;;;;;4.72;1.88;;;538.10;1536.00;;;;;;5072494;28;20071;-76
2021/08/18 05:03:15;;;;;;;5.57;2.03;;;538.20;1536.00;;;;;;5074096;28;20108;-76
2021/08/18 05:05:41;;;;;;;3.40;1.73;;;538.10;1536.00;;;;;;5076390;28;20028;-76
2021/08/18 05:08:07;;;;;;;3.35;1.73;;;538.00;1536.00;;;;;;5075584;28;20028;-75
2021/08/18 05:10:34;;;;;;;5.30;1.80;;;538.10;1536.00;;;;;;5083203;28;20024;-75
2021/08/18 05:13:00;;;;;;;4.95;2.10;;;538.10;1536.00;;;;;;5096387;28;20033;-75
2021/08/18 05:15:26;;;;;;;12.07;2.03;;;538.10;1561.60;;;;;;5097040;28;20023;-76
2021/08/18 05:17:52;;;;;;;9.93;2.85;;;538.10;1536.00;;;;;;5096399;28;20020;-75
2021/08/18 05:20:19;;;;;;;7.65;1.85;;;538.10;1561.60;;;;;;5096889;28;20099;-76
2021/08/18 05:22:46;;;;;;;5.47;2.55;;;538.10;1561.60;;;;;;5096480;28;20113;-79
2021/08/18 05:25:13;;;;;;;4.22;1.90;;;538.10;1587.20;;;;;;5096212;28;20135;-80
2021/08/18 05:27:39;;;;;;;6.20;2.75;;;538.10;1561.60;;;;;;5096473;28;20036;-80
2021/08/18 05:30:06;;;;;;;7.90;2.47;;;538.10;1561.60;;;;;;5078218;28;20043;-78
2021/08/18 05:32:32;;;;;;;5.03;2.67;;;538.00;1561.60;;;;;;5096316;28;20031;-80
2021/08/18 05:34:58;;;;;;;6.10;2.13;;;538.10;1561.60;;;;;;5096069;28;20020;-77
2021/08/18 05:37:23;;;;;;;11.07;2.40;;;538.00;1561.60;;;;;;5077648;28;20043;-79
2021/08/18 05:39:49;;;;;;;5.75;1.95;;;538.00;1561.60;;;;;;5096188;28;20028;-76
2021/08/18 05:42:15;;;;;;;5.80;2.17;;;538.10;1587.20;;;;;;5096002;28;20533;-75
2021/08/18 05:44:41;;;;;;;7.18;1.95;;;538.10;1561.60;;;;;;5096976;28;20016;-77
2021/08/18 05:47:07;;;;;;;7.47;2.47;;;538.10;1561.60;;;;;;5077625;28;20032;-76
2021/08/18 05:49:32;;;;;;;6.35;1.98;;;538.30;1561.60;;;;;;5089139;28;20036;-77
2021/08/18 05:51:58;;;;;;;7.22;2.10;;;538.30;1561.60;;;;;;5095935;28;20031;-77
2021/08/18 05:54:24;;;;;;;3.50;2.30;;;538.40;1561.60;;;;;;5077287;28;20024;-78
2021/08/18 05:56:52;;;;;;;11.60;3.45;;;538.50;1536.00;;;;;;5076361;28;20033;-77
2021/08/18 05:59:18;;;;;;;6.93;2.20;;;538.50;1536.00;;;;;;5075244;28;20028;-78
2021/08/18 06:01:43;;;;;;;6.03;2.78;;;538.50;1536.00;;;;;;5076535;28;20068;-77
2021/08/18 06:04:09;;;;;;;4.60;2.33;;;538.50;1510.40;;;;;;5095412;28;20078;-76
2021/08/18 06:06:35;;;;;;;5.78;2.80;;;563.20;1561.60;;;;;;5095982;28;20024;-77
2021/08/18 06:09:01;;;;;;;7.72;2.65;;;563.20;1536.00;;;;;;5095317;28;20020;-76
2021/08/18 06:11:27;;;;;;;11.02;2.90;;;563.20;1536.00;;;;;;5095518;28;20505;-76
2021/08/18 06:13:53;;;;;;;6.13;2.92;;;563.30;1561.60;;;;;;5076440;28;20035;-78
2021/08/18 06:16:20;;;;;;;4.47;2.63;;;538.50;1510.40;;;;;;5094436;28;20034;-78
2021/08/18 06:18:46;;;;;;;6.03;2.20;;;563.30;1536.00;;;;;;5095276;28;20020;-78
2021/08/18 06:21:12;;;;;;;5.72;2.92;;;563.40;1561.60;;;;;;5062874;28;20041;-77
2021/08/18 06:23:37;;;;;;;6.90;2.30;;;563.40;1536.00;;;;;;5074727;28;20021;-76
2021/08/18 06:26:03;;;;;;;4.93;2.35;;;563.50;1536.00;;;;;;5075103;28;20037;-78
2021/08/18 06:28:29;;;;;;;5.18;2.42;;;563.50;1561.60;;;;;;5057082;28;20041;-78
2021/08/18 06:30:55;;;;;;;5.38;3.20;;;563.50;1536.00;;;;;;5074447;28;20024;-75
2021/08/18 06:33:20;;;;;;;5.07;2.65;;;563.50;1536.00;;;;;;5074385;28;20078;-75
2021/08/18 06:35:46;;;;;;;4.97;1.80;;;563.60;1536.00;;;;;;5074391;28;20051;-75
2021/08/18 06:38:12;;;;;;;2.47;1.73;;;563.60;1510.40;;;;;;5055143;28;20102;-74
2021/08/18 06:40:39;;;;;;;9.35;3.33;;;563.60;1510.40;;;;;;5073930;28;20048;-74
2021/08/18 06:43:04;;;;;;;4.88;2.28;;;563.60;1510.40;;;;;;5074261;28;20032;-75
2021/08/18 06:45:30;;;;;;;7.47;2.80;;;563.60;1536.00;;;;;;5074275;28;20467;-74
2021/08/18 06:47:56;;;;;;;4.60;2.20;;;563.70;1536.00;;;;;;5074257;28;20037;-76
2021/08/18 06:50:23;;;;;;;5.50;3.50;;;563.70;1510.40;;;;;;5074228;28;20386;-74
2021/08/18 06:52:48;;;;;;;7.90;2.55;;;563.70;1510.40;;;;;;5073824;28;20051;-74
2021/08/18 06:55:15;;;;;;;3.38;2.08;;;563.70;1510.40;;;;;;5073772;28;20474;-74
2021/08/18 06:57:41;;;;;;;6.85;2.47;;;563.80;1536.00;;;;;;5074108;28;20497;-77
2021/08/18 07:00:09;;;;;;;6.57;2.25;;;563.90;1536.00;;;;;;5073984;28;20434;-74
2021/08/18 07:02:46;;;;;;;6.78;2.60;;;564.00;1510.40;;;;;;5055597;28;20028;-74
2021/08/18 07:05:13;;;;;;;8.48;2.50;;;564.10;1484.80;;;;;;5055714;28;20085;-75
2021/08/18 07:07:40;;;;;;;3.05;2.13;;;564.10;1484.80;;;;;;5073395;28;20496;-75
2021/08/18 07:10:06;;;;;;;5.75;2.20;;;564.10;1510.40;;;;;;5073408;28;20024;-75
2021/08/18 07:12:32;;;;;;;3.72;2.28;;;588.90;1510.40;;;;;;5073581;28;20066;-76
2021/08/18 07:14:58;;;;;;;6.57;2.55;;;589.00;1433.60;;;;;;5073564;28;20050;-76
2021/08/18 07:17:23;;;;;;;7.22;2.70;;;589.00;1459.20;;;;;;5073686;28;20540;-76
2021/08/18 07:19:49;;;;;;;5.03;2.65;;;589.00;1433.60;;;;;;5073765;28;20074;-74
2021/08/18 07:22:15;;;;;;;7.25;2.45;;;588.80;1459.20;;;;;;5073921;28;20462;-76
2021/08/18 07:24:40;;;;;;;5.00;2.72;;;564.10;1484.80;;;;;;5073201;28;20025;-75
2021/08/18 07:27:06;;;;;;;7.82;3.05;;;588.80;1484.80;;;;;;5072416;28;20490;-75
2021/08/18 07:29:32;;;;;;;8.20;2.28;;;589.00;1459.20;;;;;;5074338;28;20070;-76
2021/08/18 07:31:58;;;;;;;10.57;3.13;;;589.00;1459.20;;;;;;5055081;28;20067;-75
2021/08/18 07:34:24;;;;;;;4.60;2.15;;;589.00;1459.20;;;;;;5073376;28;20049;-77
2021/08/18 07:36:50;;;;;;;5.20;2.08;;;589.10;1459.20;;;;;;5073340;28;20025;-76
2021/08/18 07:39:16;;;;;;;8.40;2.80;;;589.20;1433.60;;;;;;5054856;28;20143;-76
2021/08/18 07:41:41;;;;;;;5.47;2.17;;;589.40;1433.60;;;;;;5073689;28;20020;-75
2021/08/18 07:44:07;;;;;;;5.47;1.90;;;589.60;1408.00;;;;;;5073401;28;20024;-74
2021/08/18 07:46:33;;;;;;;2.65;1.52;;;589.70;1382.40;;;;;;5073201;28;20024;-75
2021/08/18 07:48:58;;;;;;;6.78;2.95;;;589.70;1382.40;;;;;;5073221;28;20032;-74
2021/08/18 07:51:24;;;;;;;4.18;1.70;;;589.70;1356.80;;;;;;5073102;28;20462;-76
2021/08/18 07:53:50;;;;;;;5.28;2.00;;;614.40;1382.40;;;;;;5073094;28;20146;-76
2021/08/18 07:56:15;;;;;;;3.65;2.13;;;614.40;1382.40;;;;;;5073103;28;20029;-76
2021/08/18 07:58:41;;;;;;;4.53;2.10;;;614.60;1331.20;;;;;;5054525;28;20037;-74
2021/08/18 08:01:07;;;;;;;5.32;2.00;;;614.50;1305.60;;;;;;5073277;28;20033;-76
2021/08/18 08:03:33;;;;;;;11.27;2.50;;;614.50;1305.60;;;;;;5073249;28;20032;-76
2021/08/18 08:05:59;;;;;;;5.70;2.03;;;614.50;1305.60;;;;;;5054810;28;20479;-76
2021/08/18 08:08:24;;;;;;;4.50;2.17;;;614.60;1331.20;;;;;;5054714;28;20024;-75
2021/08/18 08:10:50;;;;;;;6.18;2.20;;;614.70;1305.60;;;;;;5072808;28;20032;-75
2021/08/18 08:13:16;;;;;;;4.78;2.25;;;614.80;1280.00;;;;;;5073275;28;20021;-75
2021/08/18 08:15:42;;;;;;;5.63;2.53;;;614.90;1331.20;;;;;;5073288;28;20040;-74
2021/08/18 08:18:08;;;;;;;5.38;2.75;;;615.00;1305.60;;;;;;5073101;28;20027;-75
2021/08/18 08:20:34;;;;;;;4.20;1.70;;;615.10;1280.00;;;;;;5055001;28;20024;-74
2021/08/18 08:23:01;;;;;;;4.35;1.88;;;615.10;1280.00;;;;;;5072724;28;20048;-74
2021/08/18 08:25:28;;;;;;;4.40;2.08;;;615.20;1305.60;;;;;;5073132;28;20021;-78
2021/08/18 08:27:53;;;;;;;3.58;1.90;;;615.20;1254.40;;;;;;5073843;28;20032;-75
2021/08/18 08:30:19;;;;;;;5.47;1.83;;;615.30;1280.00;;;;;;5072915;28;20352;-74
2021/08/18 08:32:45;;;;;;;5.43;1.90;;;615.30;1280.00;;;;;;5073026;28;20024;-75
2021/08/18 08:35:12;;;;;;;5.60;2.00;;;640.10;1280.00;;;;;;5072777;28;20040;-75
2021/08/18 08:37:38;;;;;;;3.90;2.75;;;640.10;1280.00;;;;;;5073440;28;20059;-76
2021/08/18 08:40:04;;;;;;;5.55;1.65;;;640.30;1254.40;;;;;;5076832;28;20036;-76
2021/08/18 08:42:31;;;;;;;3.25;1.85;;;640.30;1280.00;;;;;;5058898;28;20424;-76
2021/08/18 08:45:00;;;;;;;2.88;1.60;;;640.40;1203.20;;;;;;5077072;28;20430;-75
2021/08/18 08:47:26;;;;;;;3.08;1.60;;;640.30;1203.20;;;;;;5076313;28;20398;-74
2021/08/18 08:49:53;;;;;;;5.18;2.08;;;640.40;1228.80;;;;;;5076222;28;20071;-74
2021/08/18 08:52:19;;;;;;;3.55;1.70;;;640.70;1280.00;;;;;;5076627;28;20020;-75
2021/08/18 08:54:44;;;;;;;8.02;2.47;;;640.80;1254.40;;;;;;5058246;28;20415;-74
2021/08/18 08:57:13;;;;;;;4.43;2.00;;;640.90;1203.20;;;;;;5076179;28;20025;-75
2021/08/18 08:59:40;;;;;;;4.65;1.80;;;665.60;1203.20;;;;;;5076511;28;20024;-74
2021/08/18 09:02:13;;;;;;;3.20;1.88;;;665.60;1203.20;;;;;;5058584;28;20033;-78
2021/08/18 09:04:40;;;;;;;3.08;1.75;;;665.60;1203.20;;;;;;5076238;28;20092;-75
2021/08/18 09:07:20;;;;;;;4.55;2.38;;;665.70;1228.80;;;;;;5075925;28;20028;-72
2021/08/18 09:09:55;;;;;;;10.05;1.92;;;665.90;1228.80;;;;;;5055763;28;20024;-77
2021/08/18 09:12:41;;;;;;;8.90;1.95;;;666.00;1203.20;;;;;;5075794;28;20470;-78
2021/08/18 09:15:17;;;;;;;4.80;2.20;;;666.20;1228.80;;;;;;5075774;28;20029;-75
2021/08/18 09:17:45;;;;;;;8.60;2.10;;;666.40;1228.80;;;;;;5051273;28;20029;-75
2021/08/18 09:20:15;;;;;;;3.25;1.58;;;691.30;1228.80;;;;;;5060142;28;20479;-75
2021/08/18 09:22:59;;;;;;;2.55;1.42;;;691.50;1152.00;;;;;;5056474;28;20041;-74
2021/08/18 09:25:36;;;;;;;4.03;1.90;;;691.80;1152.00;;;;;;5055965;28;20070;-75
2021/08/18 09:28:05;;;;;;;4.57;1.85;;;691.90;1100.80;;;;;;5055793;28;20044;-75
2021/08/18 09:30:44;;;;;;;2.72;1.80;;;691.90;1100.80;;;;;;5056094;28;20025;-75
2021/08/18 09:33:16;;;;;;;2.55;1.77;;;691.90;1100.80;;;;;;5056920;28;20029;-75
2021/08/18 09:35:58;;;;;;;5.00;2.05;;;691.80;1075.20;;;;;;5057381;28;20022;-75
2021/08/18 09:38:26;;;;;;;6.57;2.13;;;691.70;1100.80;;;;;;5056689;28;20060;-73
2021/08/18 09:40:55;;;;;;;3.90;1.95;;;691.60;1126.40;;;;;;5056793;28;20262;-74
2021/08/18 09:43:27;;;;;;;4.43;2.05;;;691.50;1126.40;;;;;;5056829;28;20021;-75
2021/08/18 09:46:04;;;;;;;6.65;2.13;;;691.40;1126.40;;;;;;5056979;28;20029;-75
2021/08/18 09:48:32;;;;;;;6.00;2.80;;;691.40;1126.40;;;;;;5055928;28;20107;-73
2021/08/18 09:51:01;;;;;;;3.08;1.73;;;666.50;1152.00;;;;;;5055497;28;20028;-75
2021/08/18 09:53:29;;;;;;;4.50;1.90;;;666.40;1126.40;;;;;;5055046;28;20035;-74
2021/08/18 09:56:01;;;;;;;7.18;2.15;;;666.30;1152.00;;;;;;5055220;28;20460;-74
2021/08/18 09:58:36;;;;;;;5.83;2.50;;;666.10;1152.00;;;;;;5055638;28;20029;-74
2021/08/18 10:01:15;;;;;;;4.35;2.45;;;666.00;1152.00;;;;;;5055248;28;20272;-74
2021/08/18 10:03:42;;;;;;;5.65;2.40;;;666.00;1177.60;;;;;;5055102;28;20023;-74
2021/08/18 10:06:10;;;;;;;3.42;1.80;;;665.80;1177.60;;;;;;5054886;28;20058;-75
2021/08/18 10:08:37;;;;;;;4.32;2.28;;;665.80;1152.00;;;;;;5055032;28;20074;-75
2021/08/18 10:11:05;;;;;;;2.80;1.70;;;665.70;1152.00;;;;;;5055552;28;20025;-73
2021/08/18 10:13:31;;;;;;;3.15;1.70;;;665.80;1126.40;;;;;;5054980;28;20045;-75
2021/08/18 10:15:58;;;;;;;2.78;1.70;;;665.80;1126.40;;;;;;5054919;28;20036;-72
2021/08/18 10:18:31;;;;;;;6.05;1.92;;;665.80;1152.00;;;;;;5054774;28;20021;-75
2021/08/18 10:21:06;;;;;;;4.28;1.73;;;665.70;1152.00;;;;;;5054701;28;20037;-75
2021/08/18 10:23:59;;;;;;;6.05;1.70;;;665.70;1177.60;;;;;;5054411;28;20104;-75
2021/08/18 10:26:34;;;;;;;;;;;665.60;1152.00;;;;;;5037210;28;20525;-76
2021/08/18 10:29:13;;;;;;;4.15;1.92;;;665.60;1177.60;;;;;;5054759;28;19916;-76
2021/08/18 10:34:23;;;;;;;9.40;2.95;;;640.90;1177.60;;;;;;5055007;28;20059;-75
2021/08/18 10:37:07;;;;;;;5.22;2.03;;;640.70;1280.00;;;;;;5054478;28;20417;-77
2021/08/18 10:39:51;;;;;;;7.68;3.15;;;640.60;1305.60;;;;;;5036961;28;20062;-75
2021/08/18 10:42:42;;;;;;;8.70;2.00;;;640.40;1356.80;;;;;;5036607;28;20032;-74
2021/08/18 10:45:23;;;;;;;5.03;2.22;;;640.30;1382.40;;;;;;4958030;28;20125;-77
2021/08/18 10:47:49;;;;;;;6.13;2.78;;;640.20;1433.60;;;;;;4973439;28;20047;-78
2021/08/18 10:50:18;;;;;;;8.77;2.35;;;640.10;1408.00;;;;;;4957530;28;20370;-77
2021/08/18 10:52:43;;;;;;;9.30;2.28;;;640.00;1459.20;;;;;;4974025;28;20070;-77
2021/08/18 10:55:15;;;;;;;5.93;2.45;;;615.20;1459.20;;;;;;4973653;28;20058;-76
2021/08/18 10:57:40;;;;;;;6.05;2.53;;;615.10;1459.20;;;;;;4973837;28;20512;-76
2021/08/18 11:00:40;;;;;;;8.18;3.17;;;614.80;1484.80;;;;;;4973198;28;20046;-77
2021/08/18 11:03:22;;;;;;;5.03;2.40;;;614.80;1484.80;;;;;;4971850;28;20035;-75
2021/08/18 11:05:51;;;;;;;4.80;2.63;;;614.80;1484.80;;;;;;4973636;28;20019;-75
2021/08/18 11:08:35;;;;;;;7.88;3.03;;;614.90;1484.80;;;;;;4973517;28;20045;-79
2021/08/18 11:11:01;;;;;;;6.03;2.92;;;614.80;1536.00;;;;;;4973372;28;20027;-76
2021/08/18 11:13:49;;;;;;;9.98;3.30;;;614.80;1510.40;;;;;;4973097;28;20034;-79
2021/08/18 11:16:23;;;;;;;7.30;2.75;;;614.80;1536.00;;;;;;4972888;28;20034;-74
2021/08/18 11:18:52;;;;;;;7.80;2.40;;;614.70;1536.00;;;;;;4973089;28;20173;-74
2021/08/18 11:21:24;;;;;;;4.07;2.90;;;614.60;1561.60;;;;;;4985526;28;20061;-74
2021/08/18 11:23:59;;;;;;;13.52;3.10;;;614.50;1561.60;;;;;;5053344;28;20032;-77
2021/08/18 11:26:27;;;;;;;4.47;2.90;;;614.40;1587.20;;;;;;5053270;28;20061;-75
2021/08/18 11:29:11;;;;;;;3.97;2.72;;;589.70;1638.40;;;;;;5054205;28;20379;-76
2021/08/18 11:31:38;;;;;;;5.20;3.13;;;614.40;1638.40;;;;;;5053464;28;20060;-75
2021/08/18 11:34:05;;;;;;;8.25;2.58;;;614.50;1561.60;;;;;;5053584;28;20051;-78
2021/08/18 11:36:35;;;;;;;12.30;3.20;;;614.40;1536.00;;;;;;5035649;28;20041;-79
2021/08/18 11:39:06;;;;;;;4.65;2.22;;;614.60;1510.40;;;;;;5035106;28;20052;-75
2021/08/18 11:41:42;;;;;;;4.18;2.40;;;614.60;1484.80;;;;;;5035299;28;20060;-74
2021/08/18 11:44:09;;;;;;;5.85;2.33;;;614.70;1536.00;;;;;;5053255;28;20032;-75
2021/08/18 11:46:35;;;;;;;6.93;3.28;;;614.80;1484.80;;;;;;5053239;28;20021;-76
2021/08/18 11:49:05;;;;;;;9.82;2.38;;;614.90;1484.80;;;;;;5053132;28;20100;-77
2021/08/18 11:51:32;;;;;;;9.38;2.33;;;615.10;1433.60;;;;;;5053035;28;20082;-76
2021/08/18 11:53:57;;;;;;;5.55;2.80;;;615.10;1408.00;;;;;;5052950;28;20031;-74
2021/08/18 11:56:28;;;;;;;7.65;2.22;;;615.20;1433.60;;;;;;5053442;28;20108;-73
2021/08/18 11:58:59;;;;;;;5.60;2.35;;;615.20;1382.40;;;;;;5052906;28;20025;-75
2021/08/18 12:01:26;;;;;;;4.38;2.60;;;615.20;1356.80;;;;;;5035318;28;20033;-75
2021/08/18 12:03:52;;;;;;;4.72;2.55;;;615.20;1408.00;;;;;;5034728;28;20033;-75
2021/08/18 12:06:29;;;;;;;5.53;2.13;;;615.20;1408.00;;;;;;5053063;28;20078;-73
2021/08/18 12:08:55;;;;;;;5.88;2.75;;;615.20;1331.20;;;;;;5052635;28;20111;-74
2021/08/18 12:11:33;;;;;;;10.90;2.90;;;615.20;1356.80;;;;;;5052832;28;20105;-74
2021/08/18 12:14:14;;;;;;;6.78;2.70;;;615.30;1408.00;;;;;;5055976;28;20491;-73
2021/08/18 12:16:40;;;;;;;10.25;3.50;;;640.00;1408.00;;;;;;5056893;28;20021;-73
2021/08/18 12:19:27;;;;;;;5.63;2.38;;;640.00;1356.80;;;;;;5056887;28;20425;-74
2021/08/18 12:22:04;;;;;;;5.10;1.92;;;640.10;1356.80;;;;;;5056968;28;20027;-74
2021/08/18 12:24:31;;;;;;;7.78;3.55;;;640.20;1305.60;;;;;;5056388;28;20033;-74